createdAt,value
2019-03-05T00:01:49.144Z,8.86
2019-03-05T00:04:18.709Z,8.84
2019-03-05T00:06:48.987Z,8.91
2019-03-05T00:09:20.376Z,8.69
2019-03-05T00:11:50.168Z,8.83
2019-03-05T00:14:22.843Z,8.85
2019-03-05T00:16:52.605Z,8.90
2019-03-05T00:19:22.360Z,8.87
2019-03-05T00:21:52.260Z,8.97
2019-03-05T00:25:01.739Z,8.94
2019-03-05T00:27:33.838Z,8.98
2019-03-05T00:30:35.247Z,8.79
2019-03-05T00:33:47.274Z,8.68
2019-03-05T00:36:30.352Z,8.76
2019-03-05T00:39:25.707Z,8.78
2019-03-05T00:42:49.847Z,9.06
2019-03-05T00:45:51.450Z,9.01
2019-03-05T00:48:42.258Z,8.69
2019-03-05T00:51:33.796Z,8.74
2019-03-05T00:54:19.900Z,8.80
2019-03-05T00:57:17.890Z,8.64
2019-03-05T01:00:07.004Z,8.73
2019-03-05T01:03:05.517Z,8.83
2019-03-05T01:06:23.904Z,8.79
2019-03-05T01:08:58.329Z,9.00
2019-03-05T01:11:28.009Z,8.87
2019-03-05T01:13:57.787Z,8.78
2019-03-05T01:16:29.281Z,8.98
2019-03-05T01:18:59.082Z,9.01
2019-03-05T01:21:28.660Z,8.91
2019-03-05T01:23:58.398Z,8.96
2019-03-05T01:26:28.040Z,9.14
2019-03-05T01:28:57.671Z,9.32
2019-03-05T01:31:45.269Z,9.21
2019-03-05T01:37:09.349Z,9.13
2019-03-05T01:39:43.433Z,8.98
2019-03-05T01:42:13.184Z,8.91
2019-03-05T01:44:43.638Z,8.80
2019-03-05T01:47:13.295Z,8.82
2019-03-05T01:49:43.006Z,8.76
2019-03-05T01:52:12.646Z,8.69
2019-03-05T01:54:42.362Z,8.82
2019-03-05T01:57:12.031Z,8.70
2019-03-05T01:59:41.604Z,8.74
2019-03-05T02:02:11.314Z,8.79
2019-03-05T02:04:40.918Z,8.71
2019-03-05T02:07:12.072Z,8.55
2019-03-05T02:09:41.705Z,8.64
2019-03-05T02:12:11.449Z,8.77
2019-03-05T02:14:41.458Z,8.65
2019-03-05T02:17:10.979Z,8.65
2019-03-05T02:19:44.053Z,8.68
2019-03-05T02:22:23.863Z,8.80
2019-03-05T02:25:06.798Z,8.39
2019-03-05T02:28:14.397Z,8.12
2019-03-05T02:34:14.179Z,7.76
2019-03-05T02:37:06.482Z,7.61
2019-03-05T02:39:55.948Z,7.86
2019-03-05T02:42:36.022Z,7.81
2019-03-05T02:45:42.922Z,7.73
2019-03-05T02:48:32.253Z,7.80
2019-03-05T02:51:13.370Z,7.93
2019-03-05T02:53:59.562Z,7.98
2019-03-05T02:57:10.510Z,7.84
2019-03-05T02:59:40.334Z,7.61
2019-03-05T03:02:28.117Z,7.53
2019-03-05T03:05:02.079Z,7.63
2019-03-05T03:07:31.766Z,7.51
2019-03-05T03:10:20.807Z,7.66
2019-03-05T03:12:50.540Z,7.68
2019-03-05T03:15:21.110Z,7.74
2019-03-05T03:17:50.924Z,7.74
2019-03-05T03:20:24.361Z,7.75
2019-03-05T03:22:54.095Z,7.80
2019-03-05T03:25:23.974Z,7.89
2019-03-05T03:27:53.835Z,8.07
2019-03-05T03:30:25.639Z,7.96
2019-03-05T03:32:55.490Z,7.93
2019-03-05T03:35:32.404Z,7.53
2019-03-05T03:38:02.051Z,7.66
2019-03-05T03:40:31.763Z,7.72
2019-03-05T03:43:01.617Z,7.68
2019-03-05T03:45:31.242Z,7.84
2019-03-05T03:48:00.890Z,7.84
2019-03-05T03:50:31.563Z,7.93
2019-03-05T03:53:01.736Z,7.74
2019-03-05T03:55:32.145Z,7.87
2019-03-05T03:58:01.906Z,7.98
2019-03-05T04:00:31.581Z,7.94
2019-03-05T04:03:01.147Z,7.78
2019-03-05T04:05:31.287Z,7.69
2019-03-05T04:08:01.071Z,7.66
2019-03-05T04:10:30.836Z,7.92
2019-03-05T04:13:00.991Z,7.80
2019-03-05T04:15:30.670Z,8.14
2019-03-05T04:18:02.351Z,8.32
2019-03-05T04:20:33.155Z,7.93
2019-03-05T04:23:02.805Z,7.70
2019-03-05T04:25:32.632Z,7.92
2019-03-05T04:28:02.623Z,7.88
2019-03-05T04:30:32.311Z,7.78
2019-03-05T04:33:01.807Z,7.52
2019-03-05T04:35:31.537Z,7.49
2019-03-05T04:38:02.731Z,7.29
2019-03-05T04:40:32.334Z,7.22
2019-03-05T04:43:01.960Z,7.27
2019-03-05T04:45:44.147Z,7.21
2019-03-05T04:48:14.560Z,7.35
2019-03-05T04:50:51.690Z,7.31
2019-03-05T04:53:21.332Z,7.34
2019-03-05T04:55:51.230Z,7.43
2019-03-05T04:58:20.907Z,7.77
2019-03-05T05:00:50.821Z,7.63
2019-03-05T05:03:20.542Z,7.68
2019-03-05T05:05:50.290Z,7.59
2019-03-05T05:08:20.804Z,7.56
2019-03-05T05:10:50.448Z,7.17
2019-03-05T05:13:20.106Z,7.08
2019-03-05T05:15:49.657Z,7.02
2019-03-05T05:18:19.257Z,7.07
2019-03-05T05:20:49.326Z,6.97
2019-03-05T05:23:18.876Z,6.98
2019-03-05T05:25:48.634Z,7.11
2019-03-05T05:28:18.223Z,7.09
2019-03-05T05:30:49.744Z,7.13
2019-03-05T05:33:19.448Z,7.17
2019-03-05T05:35:49.124Z,7.02
2019-03-05T05:38:18.785Z,7.32
2019-03-05T05:40:52.072Z,7.31
2019-03-05T05:43:31.197Z,7.38
2019-03-05T05:46:00.812Z,7.31
2019-03-05T05:48:30.411Z,7.19
2019-03-05T05:51:00.750Z,7.14
2019-03-05T05:53:30.350Z,7.22
2019-03-05T05:56:00.002Z,7.21
2019-03-05T05:58:29.642Z,7.27
2019-03-05T06:01:00.965Z,7.32
2019-03-05T06:03:30.976Z,7.19
2019-03-05T06:06:01.644Z,7.25
2019-03-05T06:08:32.005Z,7.13
2019-03-05T06:11:01.605Z,7.07
2019-03-05T06:13:31.349Z,6.96
2019-03-05T06:16:01.032Z,7.12
2019-03-05T06:18:30.707Z,7.17
2019-03-05T06:21:01.743Z,7.39
2019-03-05T06:23:31.485Z,7.38
2019-03-05T06:26:01.155Z,7.51
2019-03-05T06:28:31.213Z,7.29
2019-03-05T06:31:01.072Z,7.45
2019-03-05T06:33:30.800Z,7.36
2019-03-05T06:36:00.617Z,7.38
2019-03-05T06:38:30.239Z,7.41
2019-03-05T06:41:00.010Z,7.60
2019-03-05T06:43:29.643Z,7.70
2019-03-05T06:45:59.338Z,7.68
2019-03-05T06:48:28.952Z,7.60
2019-03-05T06:51:00.230Z,7.61
2019-03-05T06:53:29.924Z,7.47
2019-03-05T06:55:59.556Z,7.71
2019-03-05T06:58:29.319Z,7.52
2019-03-05T07:00:58.994Z,7.83
2019-03-05T07:03:28.655Z,7.77
2019-03-05T07:06:44.281Z,7.69
2019-03-05T07:09:36.714Z,7.90
2019-03-05T07:12:31.229Z,8.57
2019-03-05T07:15:29.651Z,8.78
2019-03-05T07:18:03.916Z,8.76
2019-03-05T07:20:59.445Z,8.47
2019-03-05T07:23:56.621Z,8.94
2019-03-05T07:26:26.479Z,9.65
2019-03-05T07:28:56.556Z,9.62
2019-03-05T07:31:26.234Z,9.62
2019-03-05T07:33:55.857Z,10.55
2019-03-05T07:36:25.807Z,10.93
2019-03-05T07:38:55.674Z,10.21
2019-03-05T07:41:25.483Z,11.23
2019-03-05T07:43:55.330Z,11.26
2019-03-05T07:46:25.147Z,10.52
2019-03-05T07:48:54.697Z,10.68
2019-03-05T07:51:24.411Z,10.86
2019-03-05T07:53:54.207Z,10.87
2019-03-05T07:56:23.882Z,11.68
2019-03-05T07:58:53.671Z,12.16
2019-03-05T08:01:23.571Z,12.51
2019-03-05T08:03:53.400Z,12.81
2019-03-05T08:06:22.988Z,14.09
2019-03-05T08:09:29.712Z,15.09
2019-03-05T08:12:34.002Z,14.92
2019-03-05T08:15:30.517Z,14.88
2019-03-05T08:18:00.172Z,16.10
2019-03-05T08:20:29.945Z,16.57
2019-03-05T08:23:01.336Z,16.77
2019-03-05T08:25:31.042Z,16.50
2019-03-05T08:28:00.827Z,13.69
2019-03-05T08:30:31.084Z,13.51
2019-03-05T08:33:01.390Z,12.47
2019-03-05T08:35:31.013Z,12.55
2019-03-05T08:38:00.881Z,12.22
2019-03-05T08:40:33.003Z,12.81
2019-03-05T08:43:02.753Z,12.69
2019-03-05T08:45:32.636Z,11.21
2019-03-05T08:48:02.376Z,10.68
2019-03-05T08:50:31.991Z,11.06
2019-03-05T08:53:01.602Z,10.12
2019-03-05T08:55:31.428Z,10.08
2019-03-05T08:58:01.162Z,9.83
2019-03-05T09:00:30.999Z,10.39
2019-03-05T09:03:00.653Z,11.28
2019-03-05T09:05:30.422Z,11.43
2019-03-05T09:08:00.481Z,11.48
2019-03-05T09:10:31.062Z,10.81
2019-03-05T09:13:00.856Z,10.75
2019-03-05T09:15:30.786Z,10.38
2019-03-05T09:18:00.465Z,10.36
2019-03-05T09:20:30.351Z,10.37
2019-03-05T09:23:00.171Z,11.12
2019-03-05T09:25:30.334Z,11.19
2019-03-05T09:28:00.085Z,10.38
2019-03-05T09:30:31.720Z,10.46
2019-03-05T09:33:01.465Z,9.92
2019-03-05T09:35:31.175Z,9.75
2019-03-05T09:38:00.874Z,9.88
2019-03-05T09:40:33.051Z,9.68
2019-03-05T09:43:02.853Z,9.84
2019-03-05T09:45:32.880Z,10.06
2019-03-05T09:48:02.645Z,11.99
2019-03-05T09:50:32.444Z,14.84
2019-03-05T09:53:02.532Z,16.43
2019-03-05T09:55:33.887Z,17.36
2019-03-05T09:58:07.884Z,18.28
2019-03-05T10:00:35.911Z,17.85
2019-03-05T10:03:07.602Z,17.15
2019-03-05T10:05:37.308Z,15.08
2019-03-05T10:08:07.382Z,12.92
2019-03-05T10:10:37.226Z,12.31
2019-03-05T10:13:07.248Z,11.79
2019-03-05T10:15:37.134Z,11.16
2019-03-05T10:18:12.819Z,10.70
2019-03-05T10:20:38.376Z,11.03
2019-03-05T10:23:10.977Z,11.13
2019-03-05T10:25:40.744Z,11.58
2019-03-05T10:28:10.530Z,11.99
2019-03-05T10:30:46.841Z,11.85
2019-03-05T10:33:18.115Z,11.98
2019-03-05T10:35:47.922Z,11.31
2019-03-05T10:38:17.810Z,11.03
2019-03-05T10:40:54.321Z,10.88
2019-03-05T10:43:24.358Z,11.05
2019-03-05T10:45:54.111Z,10.64
2019-03-05T10:48:26.112Z,10.58
2019-03-05T10:50:56.694Z,10.40
2019-03-05T10:53:26.860Z,10.46
2019-03-05T10:55:56.562Z,10.26
2019-03-05T10:58:33.963Z,10.30
2019-03-05T11:00:58.255Z,10.43
2019-03-05T11:03:32.014Z,10.22
2019-03-05T11:06:03.088Z,10.27
2019-03-05T11:08:32.871Z,11.05
2019-03-05T11:11:13.116Z,11.40
2019-03-05T11:13:36.162Z,12.71
2019-03-05T11:16:07.669Z,15.79
2019-03-05T11:18:38.726Z,14.75
2019-03-05T11:21:08.621Z,15.24
2019-03-05T11:23:38.288Z,18.50
2019-03-05T11:26:10.871Z,20.39
2019-03-05T11:28:40.654Z,19.81
2019-03-05T11:31:11.412Z,19.48
2019-03-05T11:33:41.235Z,18.00
2019-03-05T11:36:12.679Z,20.16
2019-03-05T11:38:42.675Z,18.71
2019-03-05T11:41:12.634Z,17.91
2019-03-05T11:43:42.360Z,17.67
2019-03-05T11:46:18.125Z,17.51
2019-03-05T11:48:47.924Z,14.87
2019-03-05T11:51:17.830Z,14.23
2019-03-05T11:53:47.558Z,13.89
2019-03-05T11:56:17.414Z,13.36
2019-03-05T11:58:47.206Z,13.49
2019-03-05T12:01:18.878Z,12.61
2019-03-05T12:03:48.996Z,12.27
2019-03-05T12:06:18.752Z,12.28
2019-03-05T12:08:48.646Z,11.85
2019-03-05T12:11:18.548Z,11.45
2019-03-05T12:13:48.203Z,11.21
2019-03-05T12:16:17.915Z,10.94
2019-03-05T12:18:47.513Z,11.04
2019-03-05T12:21:19.646Z,11.13
2019-03-05T12:23:49.437Z,11.07
2019-03-05T12:26:19.100Z,10.66
2019-03-05T12:28:49.355Z,11.08
2019-03-05T12:31:19.539Z,11.19
2019-03-05T12:33:49.252Z,10.86
2019-03-05T12:36:18.957Z,9.85
2019-03-05T12:38:48.665Z,9.43
2019-03-05T12:41:18.375Z,9.34
2019-03-05T12:43:48.132Z,9.33
2019-03-05T12:46:19.668Z,9.54
2019-03-05T12:48:50.888Z,9.76
2019-03-05T12:51:20.572Z,9.73
2019-03-05T12:53:50.357Z,9.66
2019-03-05T12:56:23.820Z,9.73
2019-03-05T12:58:51.727Z,10.08
2019-03-05T13:01:21.633Z,10.63
2019-03-05T13:03:51.484Z,11.04
2019-03-05T13:06:21.307Z,10.64
2019-03-05T13:08:51.546Z,10.48
2019-03-05T13:11:21.816Z,10.26
2019-03-05T13:14:05.404Z,10.24
2019-03-05T13:16:24.412Z,10.31
2019-03-05T13:18:54.213Z,10.01
2019-03-05T13:21:23.927Z,10.08
2019-03-05T13:23:53.691Z,10.02
2019-03-05T13:26:23.476Z,10.47
2019-03-05T13:28:53.058Z,10.26
2019-03-05T13:31:22.799Z,10.19
2019-03-05T13:33:54.014Z,10.21
2019-03-05T13:36:23.859Z,10.20
2019-03-05T13:38:53.735Z,11.35
2019-03-05T13:41:23.553Z,12.41
2019-03-05T13:43:55.482Z,12.38
2019-03-05T13:46:25.939Z,11.98
2019-03-05T13:49:14.413Z,12.47
2019-03-05T13:52:09.130Z,12.83
2019-03-05T13:55:23.543Z,11.95
2019-03-05T13:58:17.261Z,12.15
2019-03-05T14:00:47.037Z,11.90
2019-03-05T14:03:24.698Z,11.77
2019-03-05T14:06:13.835Z,11.39
2019-03-05T14:08:54.021Z,10.85
2019-03-05T14:11:23.774Z,11.46
2019-03-05T14:13:53.670Z,11.88
2019-03-05T14:16:25.519Z,13.43
2019-03-05T14:18:55.252Z,13.90
2019-03-05T14:21:25.032Z,14.49
2019-03-05T14:23:54.934Z,14.15
2019-03-05T14:26:24.928Z,13.49
2019-03-05T14:28:54.662Z,13.78
2019-03-05T14:31:24.757Z,15.48
2019-03-05T14:33:54.473Z,16.47
2019-03-05T14:36:24.512Z,16.27
2019-03-05T14:38:54.544Z,16.08
2019-03-05T14:41:25.155Z,15.09
2019-03-05T14:43:55.204Z,14.66
2019-03-05T14:46:25.290Z,15.35
2019-03-05T14:48:55.193Z,15.91
2019-03-05T14:51:25.340Z,17.51
2019-03-05T14:53:55.337Z,19.34
2019-03-05T14:56:25.298Z,20.03
2019-03-05T14:58:55.160Z,20.10
2019-03-05T15:01:25.165Z,20.43
2019-03-05T15:03:55.078Z,21.08
2019-03-05T15:06:25.081Z,20.59
2019-03-05T15:08:54.832Z,18.82
2019-03-05T15:11:24.743Z,16.86
2019-03-05T15:13:54.600Z,16.81
2019-03-05T15:16:24.573Z,17.79
2019-03-05T15:18:54.474Z,17.77
2019-03-05T15:21:24.234Z,17.82
2019-03-05T15:23:54.525Z,18.00
2019-03-05T15:26:24.339Z,17.46
2019-03-05T15:28:56.448Z,18.43
2019-03-05T15:31:25.802Z,18.15
2019-03-05T15:33:57.690Z,17.93
2019-03-05T15:36:27.550Z,16.85
2019-03-05T15:38:58.089Z,15.95
2019-03-05T15:41:27.993Z,14.41
2019-03-05T15:43:57.739Z,13.54
2019-03-05T15:46:27.819Z,13.01
2019-03-05T15:48:57.651Z,12.72
2019-03-05T15:51:27.330Z,12.82
2019-03-05T15:53:57.416Z,12.50
2019-03-05T15:56:27.161Z,12.33
2019-03-05T15:58:57.025Z,12.14
2019-03-05T16:01:27.394Z,12.24
2019-03-05T16:03:57.130Z,12.22
2019-03-05T16:06:30.170Z,12.15
2019-03-05T16:09:02.195Z,11.85
2019-03-05T16:11:30.252Z,11.71
2019-03-05T16:14:01.372Z,11.68
2019-03-05T16:16:32.023Z,12.03
2019-03-05T16:19:01.868Z,11.97
2019-03-05T16:21:32.581Z,11.82
2019-03-05T16:24:02.849Z,11.83
2019-03-05T16:26:33.195Z,11.58
2019-03-05T16:29:03.076Z,11.53
2019-03-05T16:31:41.019Z,11.60
2019-03-05T16:34:18.321Z,11.92
2019-03-05T16:36:49.852Z,11.98
2019-03-05T16:39:27.466Z,11.84
2019-03-05T16:41:58.293Z,12.07
2019-03-05T16:44:28.326Z,11.74
2019-03-05T16:47:02.740Z,11.68
2019-03-05T16:49:50.852Z,11.69
2019-03-05T16:52:25.042Z,11.64
2019-03-05T16:55:05.638Z,11.54
2019-03-05T16:57:37.039Z,11.39
2019-03-05T17:00:15.346Z,11.37
2019-03-05T17:02:47.886Z,11.29
2019-03-05T17:05:32.744Z,11.12
2019-03-05T17:08:10.467Z,10.94
2019-03-05T17:10:52.337Z,10.88
2019-03-05T17:13:22.149Z,10.63
2019-03-05T17:15:51.902Z,10.33
2019-03-05T17:18:21.728Z,10.29
2019-03-05T17:20:51.387Z,10.32
2019-03-05T17:23:21.095Z,10.28
2019-03-05T17:25:52.375Z,9.97
2019-03-05T17:28:22.113Z,9.98
2019-03-05T17:30:51.862Z,9.86
2019-03-05T17:33:22.279Z,9.78
2019-03-05T17:35:51.949Z,9.59
2019-03-05T17:38:23.707Z,9.43
2019-03-05T17:40:55.047Z,9.56
2019-03-05T17:43:25.424Z,9.51
2019-03-05T17:45:56.639Z,9.39
2019-03-05T17:48:26.292Z,9.04
2019-03-05T17:50:56.029Z,9.13
2019-03-05T17:53:25.916Z,8.86
2019-03-05T17:55:57.235Z,9.09
2019-03-05T17:58:26.849Z,8.94
2019-03-05T18:00:57.565Z,8.65
2019-03-05T18:03:27.365Z,8.78
2019-03-05T18:05:56.975Z,8.75
2019-03-05T18:08:26.855Z,8.89
2019-03-05T18:10:56.658Z,8.92
2019-03-05T18:13:26.494Z,8.73
2019-03-05T18:15:56.299Z,8.66
2019-03-05T18:18:26.780Z,8.57
2019-03-05T18:20:56.699Z,8.54
2019-03-05T18:23:26.835Z,8.44
2019-03-05T18:25:57.168Z,8.26
2019-03-05T18:28:27.483Z,8.47
2019-03-05T18:30:59.047Z,8.32
2019-03-05T18:33:29.571Z,8.28
2019-03-05T18:35:59.773Z,8.35
2019-03-05T18:38:29.719Z,8.28
2019-03-05T18:41:01.067Z,8.46
2019-03-05T18:43:33.981Z,8.28
2019-03-05T18:46:03.991Z,8.29
2019-03-05T18:48:34.498Z,8.28
2019-03-05T18:51:04.873Z,8.32
2019-03-05T18:53:34.962Z,8.46
2019-03-05T18:56:05.652Z,8.31
2019-03-05T18:58:35.731Z,8.13
2019-03-05T19:01:06.530Z,7.86
2019-03-05T19:03:36.813Z,7.98
2019-03-05T19:06:06.862Z,7.91
2019-03-05T19:08:36.911Z,7.61
2019-03-05T19:11:06.713Z,7.66
2019-03-05T19:13:36.386Z,7.60
2019-03-05T19:16:06.455Z,7.61
2019-03-05T19:18:36.372Z,7.82
2019-03-05T19:21:06.108Z,7.77
2019-03-05T19:23:37.317Z,7.67
2019-03-05T19:26:08.121Z,7.61
2019-03-05T19:28:37.928Z,7.53
2019-03-05T19:31:07.891Z,7.77
2019-03-05T19:33:38.139Z,7.81
2019-03-05T19:36:07.976Z,7.82
2019-03-05T19:38:37.706Z,7.56
2019-03-05T19:41:27.320Z,7.63
2019-03-05T19:43:57.478Z,7.56
2019-03-05T19:46:27.299Z,7.66
2019-03-05T19:48:57.236Z,7.54
2019-03-05T19:51:27.341Z,7.47
2019-03-05T19:53:57.132Z,7.54
2019-03-05T19:56:27.022Z,7.37
2019-03-05T19:58:57.213Z,7.32
2019-03-05T20:01:28.621Z,7.36
2019-03-05T20:04:00.341Z,7.37
2019-03-05T20:06:32.047Z,7.29
2019-03-05T20:09:01.902Z,7.44
2019-03-05T20:11:31.987Z,7.42
2019-03-05T20:14:01.801Z,7.53
2019-03-05T20:16:31.735Z,7.50
2019-03-05T20:19:01.698Z,7.42
2019-03-05T20:21:31.433Z,7.32
2019-03-05T20:24:01.567Z,7.04
2019-03-05T20:26:31.258Z,7.23
2019-03-05T20:29:02.878Z,7.25
2019-03-05T20:31:32.560Z,7.44
2019-03-05T20:34:02.438Z,7.30
2019-03-05T20:36:32.076Z,7.30
2019-03-05T20:39:02.259Z,7.30
2019-03-05T20:41:32.082Z,7.32
2019-03-05T20:44:01.892Z,7.29
2019-03-05T20:46:31.836Z,7.28
2019-03-05T20:49:01.534Z,7.33
2019-03-05T20:51:31.664Z,7.31
2019-03-05T20:54:01.495Z,7.43
2019-03-05T20:56:31.501Z,7.49
2019-03-05T20:59:01.175Z,7.37
2019-03-05T21:01:31.789Z,7.16
2019-03-05T21:04:01.625Z,7.09
2019-03-05T21:06:31.481Z,7.10
2019-03-05T21:09:01.296Z,7.29
2019-03-05T21:11:31.676Z,7.23
2019-03-05T21:14:01.284Z,7.30
2019-03-05T21:16:31.236Z,7.23
2019-03-05T21:19:01.070Z,7.23
2019-03-05T21:21:33.384Z,7.21
2019-03-05T21:24:03.091Z,7.27
2019-03-05T21:26:32.737Z,7.38
2019-03-05T21:29:02.441Z,7.31
2019-03-05T21:31:32.297Z,7.23
2019-03-05T21:34:03.195Z,7.21
2019-03-05T21:36:32.992Z,7.12
2019-03-05T21:39:04.750Z,7.13
2019-03-05T21:41:35.061Z,7.16
2019-03-05T21:44:05.198Z,7.10
2019-03-05T21:46:35.015Z,7.12
2019-03-05T21:49:06.277Z,7.01
2019-03-05T21:51:36.607Z,6.96
2019-03-05T21:54:06.692Z,7.15
2019-03-05T21:56:36.418Z,7.18
2019-03-05T21:59:06.094Z,7.19
2019-03-05T22:01:35.897Z,7.18
2019-03-05T22:04:05.698Z,7.18
2019-03-05T22:06:54.887Z,7.26
2019-03-05T22:09:24.739Z,7.19
2019-03-05T22:11:54.302Z,7.16
2019-03-05T22:14:24.005Z,7.22
2019-03-05T22:16:53.775Z,7.23
2019-03-05T22:19:23.636Z,7.34
2019-03-05T22:21:53.691Z,7.28
2019-03-05T22:24:23.369Z,7.41
2019-03-05T22:26:53.063Z,7.33
2019-03-05T22:29:22.660Z,7.36
2019-03-05T22:31:52.673Z,7.35
2019-03-05T22:34:22.370Z,7.32
2019-03-05T22:36:51.989Z,7.26
2019-03-05T22:39:21.803Z,7.26
2019-03-05T22:41:51.509Z,7.31
2019-03-05T22:44:21.217Z,7.16
2019-03-05T22:46:51.378Z,7.11
2019-03-05T22:49:20.892Z,6.82
2019-03-05T22:51:50.587Z,6.72
2019-03-05T22:54:20.441Z,6.66
2019-03-05T22:56:50.397Z,6.64
2019-03-05T22:59:19.986Z,6.68
2019-03-05T23:01:49.607Z,6.63
2019-03-05T23:04:20.556Z,6.72
2019-03-05T23:06:50.730Z,6.77
2019-03-05T23:09:22.920Z,6.66
2019-03-05T23:11:52.703Z,6.44
2019-03-05T23:14:22.582Z,6.52
2019-03-05T23:16:52.190Z,6.49
2019-03-05T23:19:22.480Z,6.56
2019-03-05T23:21:52.352Z,6.50
2019-03-05T23:24:22.279Z,6.48
2019-03-05T23:26:52.015Z,6.51
2019-03-05T23:29:23.821Z,6.46
2019-03-05T23:31:53.805Z,6.47
2019-03-05T23:34:23.606Z,6.45
2019-03-05T23:36:54.920Z,6.35
2019-03-05T23:39:24.699Z,6.38
2019-03-05T23:41:54.621Z,6.29
2019-03-05T23:44:24.416Z,6.41
2019-03-05T23:46:54.046Z,6.29
2019-03-05T23:49:23.569Z,6.18
2019-03-05T23:51:53.164Z,6.08
2019-03-05T23:54:23.392Z,6.06
2019-03-05T23:56:53.344Z,5.96
2019-03-05T23:59:23.545Z,5.80
